Nautilus — P3QQ7 — position and weather

sailwx.info

Track history (hours):
 
Tides and Currents Weather Stations Pressure Air Temp Water Temp Dewpoint Dewpoint Depression Visibility Wind Speed Wind Dir Waves Ship Positions

Nautilus

Last reported at 2014-Sep-19 13:33 UTC. Time now 2014-Sep-19 13:50 UTC.
Position N 53°28' E 009°58'.

Length 176 m; draft 8 m.

Type: Tanker. MMSI: 212434000.

Date/timePositionNaut miles runAvg speedWind from/ knotsBaromVisibWave heightAir tempDewpointWater temp
2014-Sep-19 13:33N 53°28' E 009°58'0 0.0
2014-Sep-19 12:12N 53°28' E 009°58'0 0.0
2014-Sep-19 11:34N 53°28' E 009°58'3 2.8
2014-Sep-19 10:32N 53°31' E 009°56'0 0.0
2014-Sep-19 09:32N 53°31' E 009°56'0 0.0
2014-Sep-19 08:32N 53°31' E 009°56'0 0.0
2014-Sep-19 07:32N 53°31' E 009°56'0 0.0
2014-Sep-19 06:29N 53°31' E 009°56'0 0.0
2014-Sep-19 05:32N 53°31' E 009°56'0 0.0
2014-Sep-19 04:32N 53°31' E 009°56'0 0.0
2014-Sep-19 03:32N 53°31' E 009°56'0 0.0
2014-Sep-19 02:32N 53°31' E 009°56'0 0.0
2014-Sep-19 01:32N 53°31' E 009°56'0 0.0
2014-Sep-19 00:26N 53°31' E 009°56'0 0.0
2014-Sep-18 23:32N 53°31' E 009°56'0 0.0
2014-Sep-18 22:32N 53°31' E 009°56'0 0.0
2014-Sep-18 21:32N 53°31' E 009°56'0 0.0
2014-Sep-18 20:20N 53°31' E 009°56'0 0.0
2014-Sep-18 19:32N 53°31' E 009°56'0 0.0
2014-Sep-18 18:32N 53°31' E 009°56'0 0.0
2014-Sep-18 17:32N 53°31' E 009°56'0 0.0
2014-Sep-18 16:32N 53°31' E 009°56'0 0.0
2014-Sep-18 15:32N 53°31' E 009°56'0 0.0
2014-Sep-18 14:32N 53°31' E 009°56'0 0.0
2014-Sep-18 13:32N 53°31' E 009°56'0 0.0
2014-Sep-18 12:29N 53°31' E 009°56'0 0.0
2014-Sep-18 11:32N 53°31' E 009°56'0 0.1
2014-Sep-18 10:33N 53°31' E 009°56'8 8.4
2014-Sep-18 09:33N 53°34' E 009°43'1212.0
2014-Sep-18 08:33N 53°43' E 009°29'1413.9
2014-Sep-18 07:33N 53°53' E 009°13'1212.5
2014-Sep-18 06:33N 53°50' E 008°52'1413.7
2014-Sep-18 05:33N 53°58' E 008°33'1313.3
2014-Sep-18 04:34N 53°59' E 008°10'3 3.4
2014-Sep-18 03:33N 54°03' E 008°09'0 0.2
2014-Sep-18 02:32N 54°03' E 008°09'0 0.0
2014-Sep-18 01:29N 54°03' E 008°09'0 0.0
2014-Sep-18 00:29N 54°03' E 008°09'0 0.0
2014-Sep-17 23:32N 54°03' E 008°09'0 0.0
2014-Sep-17 22:32N 54°03' E 008°09'0 0.0
2014-Sep-17 21:32N 54°03' E 008°09'0 0.0
2014-Sep-17 20:32N 54°03' E 008°09'0 0.0
2014-Sep-17 19:26N 54°03' E 008°09'0 0.0
2014-Sep-17 18:32N 54°03' E 008°09'0 0.0
2014-Sep-17 17:32N 54°03' E 008°09'0 0.0
2014-Sep-17 16:32N 54°03' E 008°09'0 0.0
2014-Sep-17 15:29N 54°03' E 008°09'0 0.1
2014-Sep-17 14:32N 54°03' E 008°09'0 0.0
2014-Sep-17 13:26N 54°03' E 008°09'0 0.0
2014-Sep-17 12:29N 54°03' E 008°09'0 0.0
2014-Sep-17 11:32N 54°03' E 008°09'0 0.0
2014-Sep-17 10:29N 54°03' E 008°09'0 0.0
2014-Sep-17 09:29N 54°03' E 008°09'0 0.0
2014-Sep-17 08:29N 54°03' E 008°09'0 0.0
2014-Sep-17 07:32N 54°03' E 008°09'0 0.0
2014-Sep-17 06:29N 54°03' E 008°09'0 0.0
2014-Sep-17 05:32N 54°03' E 008°09'0 0.0
2014-Sep-17 04:29N 54°03' E 008°09'0 0.0
2014-Sep-17 03:32N 54°03' E 008°09'0 0.0
2014-Sep-17 02:32N 54°03' E 008°09'0 0.1
2014-Sep-17 01:32N 54°03' E 008°09'0 0.0
2014-Sep-17 00:32N 54°03' E 008°09'0 0.0
2014-Sep-16 23:32N 54°03' E 008°09'0 0.0
2014-Sep-16 22:32N 54°03' E 008°09'0 0.0
2014-Sep-16 21:32N 54°03' E 008°09'0 0.0
2014-Sep-16 20:32N 54°03' E 008°09'0 0.0
2014-Sep-16 19:29N 54°03' E 008°09'3 3.1
2014-Sep-16 18:33N 54°03' E 008°04'9 8.6
2014-Sep-16 17:33N 54°04' E 007°49'1212.5
2014-Sep-16 16:33N 54°09' E 007°29'1313.2
2014-Sep-16 15:33N 54°09' E 007°07'3013.5
2014-Sep-16 13:21N 54°08' E 006°16'1113.5
2014-Sep-16 12:33N 54°06' E 005°58'1313.4
2014-Sep-16 11:33N 54°05' E 005°35'1313.3
2014-Sep-16 10:33N 54°03' E 005°13'1313.1
2014-Sep-16 09:32N 54°01' E 004°50'12512.1
2014-Sep-15 23:09N 52°19' E 002°50'2110.7
2014-Sep-15 21:09N 52°03' E 003°13'812.6
2014-Sep-15 20:33N 52°03' E 003°26'1312.9
2014-Sep-15 19:33N 52°04' E 003°47'1010.3
2014-Sep-15 18:33N 51°60' E 004°02'1010.1
2014-Sep-15 17:33N 51°54' E 004°16'3 2.4
2014-Sep-15 16:21N 51°54' E 004°20'0 0.0
2014-Sep-15 15:20N 51°54' E 004°20'0 0.0
2014-Sep-15 14:26N 51°54' E 004°20'0 0.0
2014-Sep-15 13:20N 51°54' E 004°20'0 0.0
2014-Sep-15 12:26N 51°54' E 004°20'0 0.0
2014-Sep-15 11:26N 51°54' E 004°20'0 0.0
2014-Sep-15 10:26N 51°54' E 004°20'0 0.0
2014-Sep-15 09:32N 51°54' E 004°20'0 0.0
2014-Sep-15 08:20N 51°54' E 004°20'0 0.0
2014-Sep-15 07:26N 51°54' E 004°20'0 0.0
2014-Sep-15 06:23N 51°54' E 004°20'0 0.0
2014-Sep-15 05:32N 51°54' E 004°20'0 0.0
2014-Sep-15 04:23N 51°54' E 004°20'0 0.0
2014-Sep-15 03:17N 51°54' E 004°20'0 0.0
2014-Sep-15 02:17N 51°54' E 004°20'0 0.0
2014-Sep-15 01:32N 51°54' E 004°20'0 0.0
2014-Sep-15 00:32N 51°54' E 004°20'0 0.0
2014-Sep-14 23:26N 51°54' E 004°20'0 0.0
2014-Sep-14 22:32N 51°54' E 004°20'0 0.0
2014-Sep-14 21:20N 51°54' E 004°20'0 0.0
2014-Sep-14 20:20N 51°54' E 004°20'0 0.0
2014-Sep-14 19:14N 51°54' E 004°20'0 0.0
2014-Sep-14 18:32N 51°54' E 004°20'0 0.0
2014-Sep-14 16:26N 51°54' E 004°20'0 0.0
2014-Sep-14 14:29N 51°54' E 004°20'0 0.0
2014-Sep-14 13:23N 51°54' E 004°20'0 0.0
2014-Sep-14 12:32N 51°54' E 004°20'0 0.0
2014-Sep-14 10:29N 51°54' E 004°20'0 0.0
2014-Sep-14 09:23N 51°54' E 004°20'0 0.0
2014-Sep-14 08:26N 51°54' E 004°20'0 0.0
2014-Sep-14 07:32N 51°54' E 004°20'0 0.0
2014-Sep-14 06:20N 51°54' E 004°20'0 0.0
2014-Sep-14 05:23N 51°54' E 004°20'0 0.0
2014-Sep-14 04:26N 51°54' E 004°20'0 0.0
2014-Sep-14 03:32N 51°54' E 004°20'0 0.0
2014-Sep-14 02:11N 51°54' E 004°20'0 0.0
2014-Sep-14 01:26N 51°54' E 004°20'0 0.0
2014-Sep-13 21:11N 51°54' E 004°20'0 0.0
2014-Sep-13 20:26N 51°54' E 004°20'0 0.0
2014-Sep-13 18:26N 51°54' E 004°20'0 0.0
2014-Sep-13 17:23N 51°54' E 004°20'0 0.0
2014-Sep-13 16:26N 51°54' E 004°20'0 0.0
2014-Sep-13 15:29N 51°54' E 004°20'0 0.0
2014-Sep-13 13:26N 51°54' E 004°20'0 0.0
2014-Sep-13 12:26N 51°54' E 004°20'0 0.0
2014-Sep-13 10:26N 51°54' E 004°20'0 0.0
2014-Sep-13 09:32N 51°54' E 004°20'0 0.0
2014-Sep-13 08:05N 51°54' E 004°20'0 0.0
2014-Sep-13 07:29N 51°54' E 004°20'0 0.0
2014-Sep-13 06:14N 51°54' E 004°20'0 0.0
2014-Sep-13 05:26N 51°54' E 004°20'0 0.0
2014-Sep-13 04:32N 51°54' E 004°20'0 0.0
2014-Sep-13 03:26N 51°54' E 004°20'0 0.0
2014-Sep-13 02:32N 51°54' E 004°20'0 0.0
2014-Sep-13 00:11N 51°54' E 004°20'0 0.0
2014-Sep-12 23:20N 51°54' E 004°20'0 0.0
2014-Sep-12 22:20N 51°54' E 004°20'0 0.0
2014-Sep-12 21:29N 51°54' E 004°20'0 0.0
2014-Sep-12 20:29N 51°54' E 004°20'0 0.0
2014-Sep-12 19:26N 51°54' E 004°20'0 0.0
2014-Sep-12 18:14N 51°54' E 004°20'0 0.0
2014-Sep-12 17:26N 51°54' E 004°20'0 0.0
2014-Sep-12 09:20N 51°54' E 004°20'0 0.0
2014-Sep-12 08:29N 51°54' E 004°20'0 0.0
2014-Sep-12 01:29N 51°54' E 004°20'0 0.0
2014-Sep-12 00:20N 51°54' E 004°20'0 0.0
2014-Sep-11 22:08N 51°54' E 004°20'0 0.0
2014-Sep-11 18:14N 51°54' E 004°20'0 0.0
2014-Sep-11 16:14N 51°54' E 004°20'0 0.0
2014-Sep-11 15:23N 51°54' E 004°20'0 0.0
2014-Sep-11 13:08N 51°54' E 004°20'0 0.0
2014-Sep-11 08:29N 51°54' E 004°20'0 0.0
2014-Sep-11 07:08N 51°54' E 004°20'0 0.0
2014-Sep-11 05:11N 51°54' E 004°20'0 0.0
2014-Sep-11 03:23N 51°54' E 004°20'0 0.0
2014-Sep-11 02:26N 51°54' E 004°20'0 0.0
2014-Sep-11 01:32N 51°54' E 004°20'0 0.0
2014-Sep-10 22:32N 51°54' E 004°20'0 0.0
2014-Sep-10 19:14N 51°54' E 004°20'0 0.0
2014-Sep-10 18:14N 51°54' E 004°20'0 0.0
2014-Sep-10 16:33N 51°54' E 004°21'4 4.0
2014-Sep-10 15:33N 51°55' E 004°15'1010.0
2014-Sep-10 14:33N 51°60' E 004°00'9 8.6
2014-Sep-10 13:33N 51°59' E 003°46'2 2.0
2014-Sep-10 12:33N 51°59' E 003°43'47 5.7
2014-Sep-10 04:20N 51°42' E 002°32'1012.9
2014-Sep-10 03:33N 51°34' E 002°22'1512.7
2014-Sep-10 02:23N 51°22' E 002°10'1012.3
2014-Sep-10 01:33N 51°13' E 002°01'1414.0
2014-Sep-10 00:34N 51°06' E 001°42'4413.6
2014-Sep-09 21:18N 50°30' E 000°60'1013.8
2014-Sep-09 20:33N 50°28' E 000°44'1413.8
2014-Sep-09 19:34N 50°24' E 000°23'5311.9
2014-Sep-09 15:06N 50°10' W 000°56'  
Track history (hours):
 
Tides and Currents Weather Stations Pressure Air Temp Water Temp Dewpoint Dewpoint Depression Visibility Wind Speed Wind Dir Waves Ship Positions

Nautilus

Last reported at 2014-Sep-19 13:33 UTC. Time now 2014-Sep-19 13:50 UTC.
Position N 53°28' E 009°58'.

Length 176 m; draft 8 m.

Type: Tanker. MMSI: 212434000.

Date/timePositionNaut miles runAvg speedWind from/ knotsBaromVisibWave heightAir tempDewpointWater temp
2014-Sep-19 13:33N 53°28' E 009°58'0 0.0
2014-Sep-19 12:12N 53°28' E 009°58'0 0.0
2014-Sep-19 11:34N 53°28' E 009°58'3 2.8
2014-Sep-19 10:32N 53°31' E 009°56'0 0.0
2014-Sep-19 09:32N 53°31' E 009°56'0 0.0
2014-Sep-19 08:32N 53°31' E 009°56'0 0.0
2014-Sep-19 07:32N 53°31' E 009°56'0 0.0
2014-Sep-19 06:29N 53°31' E 009°56'0 0.0
2014-Sep-19 05:32N 53°31' E 009°56'0 0.0
2014-Sep-19 04:32N 53°31' E 009°56'0 0.0
2014-Sep-19 03:32N 53°31' E 009°56'0 0.0
2014-Sep-19 02:32N 53°31' E 009°56'0 0.0
2014-Sep-19 01:32N 53°31' E 009°56'0 0.0
2014-Sep-19 00:26N 53°31' E 009°56'0 0.0
2014-Sep-18 23:32N 53°31' E 009°56'0 0.0
2014-Sep-18 22:32N 53°31' E 009°56'0 0.0
2014-Sep-18 21:32N 53°31' E 009°56'0 0.0
2014-Sep-18 20:20N 53°31' E 009°56'0 0.0
2014-Sep-18 19:32N 53°31' E 009°56'0 0.0
2014-Sep-18 18:32N 53°31' E 009°56'0 0.0
2014-Sep-18 17:32N 53°31' E 009°56'0 0.0
2014-Sep-18 16:32N 53°31' E 009°56'0 0.0
2014-Sep-18 15:32N 53°31' E 009°56'0 0.0
2014-Sep-18 14:32N 53°31' E 009°56'0 0.0
2014-Sep-18 13:32N 53°31' E 009°56'0 0.0
2014-Sep-18 12:29N 53°31' E 009°56'0 0.0
2014-Sep-18 11:32N 53°31' E 009°56'0 0.1
2014-Sep-18 10:33N 53°31' E 009°56'8 8.4
2014-Sep-18 09:33N 53°34' E 009°43'1212.0
2014-Sep-18 08:33N 53°43' E 009°29'1413.9
2014-Sep-18 07:33N 53°53' E 009°13'1212.5
2014-Sep-18 06:33N 53°50' E 008°52'1413.7
2014-Sep-18 05:33N 53°58' E 008°33'1313.3
2014-Sep-18 04:34N 53°59' E 008°10'3 3.4
2014-Sep-18 03:33N 54°03' E 008°09'0 0.2
2014-Sep-18 02:32N 54°03' E 008°09'0 0.0
2014-Sep-18 01:29N 54°03' E 008°09'0 0.0
2014-Sep-18 00:29N 54°03' E 008°09'0 0.0
2014-Sep-17 23:32N 54°03' E 008°09'0 0.0
2014-Sep-17 22:32N 54°03' E 008°09'0 0.0
2014-Sep-17 21:32N 54°03' E 008°09'0 0.0
2014-Sep-17 20:32N 54°03' E 008°09'0 0.0
2014-Sep-17 19:26N 54°03' E 008°09'0 0.0
2014-Sep-17 18:32N 54°03' E 008°09'0 0.0
2014-Sep-17 17:32N 54°03' E 008°09'0 0.0
2014-Sep-17 16:32N 54°03' E 008°09'0 0.0
2014-Sep-17 15:29N 54°03' E 008°09'0 0.1
2014-Sep-17 14:32N 54°03' E 008°09'0 0.0
2014-Sep-17 13:26N 54°03' E 008°09'0 0.0
2014-Sep-17 12:29N 54°03' E 008°09'0 0.0
2014-Sep-17 11:32N 54°03' E 008°09'0 0.0
2014-Sep-17 10:29N 54°03' E 008°09'0 0.0
2014-Sep-17 09:29N 54°03' E 008°09'0 0.0
2014-Sep-17 08:29N 54°03' E 008°09'0 0.0
2014-Sep-17 07:32N 54°03' E 008°09'0 0.0
2014-Sep-17 06:29N 54°03' E 008°09'0 0.0
2014-Sep-17 05:32N 54°03' E 008°09'0 0.0
2014-Sep-17 04:29N 54°03' E 008°09'0 0.0
2014-Sep-17 03:32N 54°03' E 008°09'0 0.0
2014-Sep-17 02:32N 54°03' E 008°09'0 0.1
2014-Sep-17 01:32N 54°03' E 008°09'0 0.0
2014-Sep-17 00:32N 54°03' E 008°09'0 0.0
2014-Sep-16 23:32N 54°03' E 008°09'0 0.0
2014-Sep-16 22:32N 54°03' E 008°09'0 0.0
2014-Sep-16 21:32N 54°03' E 008°09'0 0.0
2014-Sep-16 20:32N 54°03' E 008°09'0 0.0
2014-Sep-16 19:29N 54°03' E 008°09'3 3.1
2014-Sep-16 18:33N 54°03' E 008°04'9 8.6
2014-Sep-16 17:33N 54°04' E 007°49'1212.5
2014-Sep-16 16:33N 54°09' E 007°29'1313.2
2014-Sep-16 15:33N 54°09' E 007°07'3013.5
2014-Sep-16 13:21N 54°08' E 006°16'1113.5
2014-Sep-16 12:33N 54°06' E 005°58'1313.4
2014-Sep-16 11:33N 54°05' E 005°35'1313.3
2014-Sep-16 10:33N 54°03' E 005°13'1313.1
2014-Sep-16 09:32N 54°01' E 004°50'12512.1
2014-Sep-15 23:09N 52°19' E 002°50'2110.7
2014-Sep-15 21:09N 52°03' E 003°13'812.6
2014-Sep-15 20:33N 52°03' E 003°26'1312.9
2014-Sep-15 19:33N 52°04' E 003°47'1010.3
2014-Sep-15 18:33N 51°60' E 004°02'1010.1
2014-Sep-15 17:33N 51°54' E 004°16'3 2.4
2014-Sep-15 16:21N 51°54' E 004°20'0 0.0
2014-Sep-15 15:20N 51°54' E 004°20'0 0.0
2014-Sep-15 14:26N 51°54' E 004°20'0 0.0
2014-Sep-15 13:20N 51°54' E 004°20'0 0.0
2014-Sep-15 12:26N 51°54' E 004°20'0 0.0
2014-Sep-15 11:26N 51°54' E 004°20'0 0.0
2014-Sep-15 10:26N 51°54' E 004°20'0 0.0
2014-Sep-15 09:32N 51°54' E 004°20'0 0.0
2014-Sep-15 08:20N 51°54' E 004°20'0 0.0
2014-Sep-15 07:26N 51°54' E 004°20'0 0.0
2014-Sep-15 06:23N 51°54' E 004°20'0 0.0
2014-Sep-15 05:32N 51°54' E 004°20'0 0.0
2014-Sep-15 04:23N 51°54' E 004°20'0 0.0
2014-Sep-15 03:17N 51°54' E 004°20'0 0.0
2014-Sep-15 02:17N 51°54' E 004°20'0 0.0
2014-Sep-15 01:32N 51°54' E 004°20'0 0.0
2014-Sep-15 00:32N 51°54' E 004°20'0 0.0
2014-Sep-14 23:26N 51°54' E 004°20'0 0.0
2014-Sep-14 22:32N 51°54' E 004°20'0 0.0
2014-Sep-14 21:20N 51°54' E 004°20'0 0.0
2014-Sep-14 20:20N 51°54' E 004°20'0 0.0
2014-Sep-14 19:14N 51°54' E 004°20'0 0.0
2014-Sep-14 18:32N 51°54' E 004°20'0 0.0
2014-Sep-14 16:26N 51°54' E 004°20'0 0.0
2014-Sep-14 14:29N 51°54' E 004°20'0 0.0
2014-Sep-14 13:23N 51°54' E 004°20'0 0.0
2014-Sep-14 12:32N 51°54' E 004°20'0 0.0
2014-Sep-14 10:29N 51°54' E 004°20'0 0.0
2014-Sep-14 09:23N 51°54' E 004°20'0 0.0
2014-Sep-14 08:26N 51°54' E 004°20'0 0.0
2014-Sep-14 07:32N 51°54' E 004°20'0 0.0
2014-Sep-14 06:20N 51°54' E 004°20'0 0.0
2014-Sep-14 05:23N 51°54' E 004°20'0 0.0
2014-Sep-14 04:26N 51°54' E 004°20'0 0.0
2014-Sep-14 03:32N 51°54' E 004°20'0 0.0
2014-Sep-14 02:11N 51°54' E 004°20'0 0.0
2014-Sep-14 01:26N 51°54' E 004°20'0 0.0
2014-Sep-13 21:11N 51°54' E 004°20'0 0.0
2014-Sep-13 20:26N 51°54' E 004°20'0 0.0
2014-Sep-13 18:26N 51°54' E 004°20'0 0.0
2014-Sep-13 17:23N 51°54' E 004°20'0 0.0
2014-Sep-13 16:26N 51°54' E 004°20'0 0.0
2014-Sep-13 15:29N 51°54' E 004°20'0 0.0
2014-Sep-13 13:26N 51°54' E 004°20'0 0.0
2014-Sep-13 12:26N 51°54' E 004°20'0 0.0
2014-Sep-13 10:26N 51°54' E 004°20'0 0.0
2014-Sep-13 09:32N 51°54' E 004°20'0 0.0
2014-Sep-13 08:05N 51°54' E 004°20'0 0.0
2014-Sep-13 07:29N 51°54' E 004°20'0 0.0
2014-Sep-13 06:14N 51°54' E 004°20'0 0.0
2014-Sep-13 05:26N 51°54' E 004°20'0 0.0
2014-Sep-13 04:32N 51°54' E 004°20'0 0.0
2014-Sep-13 03:26N 51°54' E 004°20'0 0.0
2014-Sep-13 02:32N 51°54' E 004°20'0 0.0
2014-Sep-13 00:11N 51°54' E 004°20'0 0.0
2014-Sep-12 23:20N 51°54' E 004°20'0 0.0
2014-Sep-12 22:20N 51°54' E 004°20'0 0.0
2014-Sep-12 21:29N 51°54' E 004°20'0 0.0
2014-Sep-12 20:29N 51°54' E 004°20'0 0.0
2014-Sep-12 19:26N 51°54' E 004°20'0 0.0
2014-Sep-12 18:14N 51°54' E 004°20'0 0.0
2014-Sep-12 17:26N 51°54' E 004°20'0 0.0
2014-Sep-12 09:20N 51°54' E 004°20'0 0.0
2014-Sep-12 08:29N 51°54' E 004°20'0 0.0
2014-Sep-12 01:29N 51°54' E 004°20'0 0.0
2014-Sep-12 00:20N 51°54' E 004°20'0 0.0
2014-Sep-11 22:08N 51°54' E 004°20'0 0.0
2014-Sep-11 18:14N 51°54' E 004°20'0 0.0
2014-Sep-11 16:14N 51°54' E 004°20'0 0.0
2014-Sep-11 15:23N 51°54' E 004°20'0 0.0
2014-Sep-11 13:08N 51°54' E 004°20'0 0.0
2014-Sep-11 08:29N 51°54' E 004°20'0 0.0
2014-Sep-11 07:08N 51°54' E 004°20'0 0.0
2014-Sep-11 05:11N 51°54' E 004°20'0 0.0
2014-Sep-11 03:23N 51°54' E 004°20'0 0.0
2014-Sep-11 02:26N 51°54' E 004°20'0 0.0
2014-Sep-11 01:32N 51°54' E 004°20'0 0.0
2014-Sep-10 22:32N 51°54' E 004°20'0 0.0
2014-Sep-10 19:14N 51°54' E 004°20'0 0.0
2014-Sep-10 18:14N 51°54' E 004°20'0 0.0
2014-Sep-10 16:33N 51°54' E 004°21'4 4.0
2014-Sep-10 15:33N 51°55' E 004°15'1010.0
2014-Sep-10 14:33N 51°60' E 004°00'9 8.6
2014-Sep-10 13:33N 51°59' E 003°46'2 2.0
2014-Sep-10 12:33N 51°59' E 003°43'47 5.7
2014-Sep-10 04:20N 51°42' E 002°32'1012.9
2014-Sep-10 03:33N 51°34' E 002°22'1512.7
2014-Sep-10 02:23N 51°22' E 002°10'1012.3
2014-Sep-10 01:33N 51°13' E 002°01'1414.0
2014-Sep-10 00:34N 51°06' E 001°42'4413.6
2014-Sep-09 21:18N 50°30' E 000°60'1013.8
2014-Sep-09 20:33N 50°28' E 000°44'1413.8
2014-Sep-09 19:34N 50°24' E 000°23'5311.9
2014-Sep-09 15:06N 50°10' W 000°56'  

Dump ship's entire track history